Time;durP1;ratioP1;P1;durP2;ratioP2;P2;SDS_P1;SDS_P2;PMS_P1;PMS_P2;Temp;Humidity;BMP_temperature;BMP_pressure;BME280_temperature;BME280_humidity;BME280_pressure;Samples;Min_cycle;Max_cycle;Signal;HPM_P1;HPM_P2
2022/05/27 00:00:25;;;;;;;7.75;1.00;;;16.10;99.90;;;;;;4200344;28;20265;-89
2022/05/27 00:02:25;;;;;;;5.60;1.00;;;16.20;99.90;;;;;;4200168;28;20163;-89
2022/05/27 00:04:26;;;;;;;12.25;0.95;;;16.10;99.90;;;;;;4182304;28;20168;-90
2022/05/27 00:06:28;;;;;;;5.15;0.98;;;16.10;99.90;;;;;;4199643;28;20651;-90
2022/05/27 00:08:29;;;;;;;8.02;1.17;;;16.10;99.90;;;;;;4198383;28;20171;-90
2022/05/27 00:10:30;;;;;;;3.60;1.10;;;16.00;99.90;;;;;;4180995;28;20171;-90
2022/05/27 00:12:31;;;;;;;7.90;1.20;;;16.00;99.90;;;;;;4196611;28;20473;-91
2022/05/27 00:14:32;;;;;;;4.82;1.00;;;15.90;99.90;;;;;;4180157;28;20203;-93
2022/05/27 00:16:32;;;;;;;3.85;0.93;;;16.00;99.90;;;;;;4196754;28;20194;-92
2022/05/27 00:18:33;;;;;;;8.00;1.13;;;16.10;99.90;;;;;;4180345;28;20309;-91
2022/05/27 00:20:35;;;;;;;5.88;1.20;;;16.10;99.90;;;;;;4180207;28;20183;-89
2022/05/27 00:22:36;;;;;;;9.00;1.33;;;16.00;99.90;;;;;;4180318;28;20182;-91
2022/05/27 00:24:36;;;;;;;4.32;1.23;;;16.10;99.90;;;;;;4196871;28;20197;-91
2022/05/27 00:26:37;;;;;;;6.80;1.17;;;16.10;99.90;;;;;;4180014;28;20218;-92
2022/05/27 00:28:38;;;;;;;11.13;1.45;;;16.00;99.90;;;;;;4180213;28;20542;-91
2022/05/27 00:30:39;;;;;;;6.90;1.40;;;16.00;99.90;;;;;;4180081;28;20171;-92
2022/05/27 00:32:40;;;;;;;4.15;1.00;;;15.90;99.90;;;;;;4180079;28;20215;-93
2022/05/27 00:34:41;;;;;;;7.43;1.40;;;15.80;99.90;;;;;;4179988;28;20194;-91
2022/05/27 00:36:41;;;;;;;9.52;1.27;;;15.90;99.90;;;;;;4180051;28;20202;-91
2022/05/27 00:38:43;;;;;;;8.25;1.17;;;16.00;99.90;;;;;;4196398;28;20238;-91
2022/05/27 00:40:52;;;;;;;8.25;1.60;;;16.10;99.90;;;;;;4179998;28;20237;-93
2022/05/27 00:42:53;;;;;;;5.40;1.25;;;16.10;99.90;;;;;;4179835;28;20167;-91
2022/05/27 00:44:54;;;;;;;6.70;1.05;;;16.10;99.90;;;;;;4179916;28;20175;-91
2022/05/27 00:47:01;;;;;;;8.38;1.60;;;16.10;99.90;;;;;;4179713;28;20690;-90
2022/05/27 00:49:09;;;;;;;8.57;1.35;;;16.20;99.90;;;;;;4196543;28;20261;-91
2022/05/27 00:51:26;;;;;;;8.90;1.40;;;16.20;99.90;;;;;;4180031;28;20201;-91
2022/05/27 00:53:41;;;;;;;5.47;1.38;;;16.20;99.90;;;;;;4179778;28;20215;-90
2022/05/27 00:55:46;;;;;;;9.63;1.48;;;16.30;99.90;;;;;;4196451;28;20185;-91
2022/05/27 00:58:09;;;;;;;8.43;1.50;;;16.20;99.90;;;;;;4199216;28;20769;-90
2022/05/27 01:00:14;;;;;;;8.15;1.33;;;16.10;99.90;;;;;;4182288;28;20281;-95
2022/05/27 01:02:15;;;;;;;8.23;1.45;;;16.10;99.90;;;;;;4183231;28;20171;-91
2022/05/27 01:04:17;;;;;;;10.85;1.77;;;16.10;99.90;;;;;;4183216;28;20171;-89
2022/05/27 01:06:18;;;;;;;9.63;1.25;;;16.10;99.90;;;;;;4199535;28;20732;-90
2022/05/27 01:08:22;;;;;;;9.38;1.55;;;16.00;99.90;;;;;;4199691;28;20175;-92
2022/05/27 01:10:24;;;;;;;12.18;1.50;;;16.10;99.90;;;;;;4199583;28;20179;-90
2022/05/27 01:12:50;;;;;;;12.43;1.85;;;16.20;99.90;;;;;;4200211;28;20198;-91
2022/05/27 01:15:12;;;;;;;7.88;1.80;;;16.20;99.90;;;;;;4199456;28;20175;-92
2022/05/27 01:17:41;;;;;;;18.88;1.65;;;16.20;99.90;;;;;;4199339;28;20195;-91
2022/05/27 01:22:44;;;;;;;10.02;1.75;;;16.10;99.90;;;;;;4199180;28;20174;-90
2022/05/27 01:25:02;;;;;;;9.27;1.48;;;16.10;99.90;;;;;;4199187;28;20202;-91
2022/05/27 01:27:20;;;;;;;8.45;1.45;;;16.10;99.90;;;;;;4182669;28;20191;-91
2022/05/27 01:29:47;;;;;;;14.43;2.00;;;16.00;99.90;;;;;;4182902;28;20176;-91
2022/05/27 01:31:52;;;;;;;8.38;1.75;;;16.10;99.90;;;;;;4199266;28;20175;-90
2022/05/27 01:34:21;;;;;;;12.10;1.70;;;16.10;99.90;;;;;;4199420;28;20666;-90
2022/05/27 01:36:37;;;;;;;11.25;1.95;;;16.30;99.90;;;;;;4178497;28;20730;-94
2022/05/27 01:39:03;;;;;;;9.93;1.52;;;16.20;99.90;;;;;;4182803;28;20635;-91
2022/05/27 01:41:14;;;;;;;9.02;1.27;;;16.30;99.90;;;;;;4199215;28;20171;-92
2022/05/27 01:43:48;;;;;;;8.27;1.65;;;16.20;99.90;;;;;;4201646;28;20249;-90
2022/05/27 01:46:13;;;;;;;8.23;1.80;;;16.30;99.90;;;;;;4203082;28;20175;-94
2022/05/27 01:48:40;;;;;;;10.30;1.58;;;16.30;99.90;;;;;;4203922;28;20352;-91
2022/05/27 01:51:04;;;;;;;11.98;1.65;;;16.40;99.90;;;;;;4186320;28;20269;-92
2022/05/27 01:53:36;;;;;;;8.23;1.70;;;16.40;99.90;;;;;;4186399;28;20211;-90
2022/05/27 01:55:51;;;;;;;11.75;1.80;;;16.40;99.90;;;;;;4187783;28;20171;-90
2022/05/27 01:58:02;;;;;;;7.43;1.70;;;16.40;99.90;;;;;;4186407;28;20284;-91
2022/05/27 02:00:06;;;;;;;8.05;1.63;;;16.40;99.90;;;;;;4200607;28;20178;-94
2022/05/27 02:02:12;;;;;;;17.55;2.13;;;16.40;99.90;;;;;;4198841;28;20166;-91
2022/05/27 02:04:36;;;;;;;8.55;1.70;;;16.40;99.90;;;;;;4198895;28;20189;-91
2022/05/27 02:06:47;;;;;;;10.88;1.90;;;16.40;99.90;;;;;;4198770;28;20598;-94
2022/05/27 02:08:58;;;;;;;7.57;1.70;;;16.20;99.90;;;;;;4198428;28;20178;-90
2022/05/27 02:11:00;;;;;;;12.02;1.90;;;16.20;99.90;;;;;;4182265;28;20182;-92
2022/05/27 02:13:24;;;;;;;9.10;1.80;;;16.30;99.90;;;;;;4182348;28;20299;-91
2022/05/27 02:15:33;;;;;;;8.23;1.90;;;16.20;99.90;;;;;;4182156;28;20175;-91
2022/05/27 02:17:39;;;;;;;12.48;1.98;;;16.10;99.90;;;;;;4181651;28;20187;-89
2022/05/27 02:19:54;;;;;;;11.43;2.20;;;16.10;99.90;;;;;;4181987;28;20171;-91
2022/05/27 02:22:13;;;;;;;7.63;2.03;;;16.00;99.90;;;;;;4198715;28;20232;-91
2022/05/27 02:24:23;;;;;;;9.15;1.70;;;16.00;99.90;;;;;;4182337;28;20241;-91
2022/05/27 02:26:30;;;;;;;13.50;1.73;;;16.00;99.90;;;;;;4182185;28;20167;-90
2022/05/27 02:28:38;;;;;;;7.55;1.85;;;15.90;99.90;;;;;;4181948;28;20234;-91
2022/05/27 02:30:44;;;;;;;10.10;1.77;;;15.80;99.90;;;;;;4181974;28;20197;-90
2022/05/27 02:35:27;;;;;;;10.95;2.13;;;15.90;99.90;;;;;;4198407;28;20182;-91
2022/05/27 02:37:32;;;;;;;11.88;2.10;;;15.90;99.90;;;;;;4197989;28;20207;-91
2022/05/27 02:39:34;;;;;;;13.27;1.90;;;15.90;99.90;;;;;;4181437;28;20273;-91
2022/05/27 02:41:46;;;;;;;7.03;1.52;;;15.90;99.90;;;;;;4181622;28;20674;-92
2022/05/27 02:44:22;;;;;;;11.82;1.98;;;16.10;99.90;;;;;;4181493;28;20213;-90
2022/05/27 02:47:02;;;;;;;9.82;2.03;;;16.00;99.90;;;;;;4194492;28;20256;-91
2022/05/27 02:49:06;;;;;;;11.15;1.50;;;16.00;99.90;;;;;;4152499;28;20278;-92
2022/05/27 02:51:22;;;;;;;9.95;2.20;;;15.90;99.90;;;;;;4181690;28;20172;-91
2022/05/27 02:53:33;;;;;;;12.73;2.25;;;16.00;99.90;;;;;;4198134;28;20248;-91
2022/05/27 02:56:08;;;;;;;11.30;1.80;;;16.00;99.90;;;;;;4198041;28;20171;-91
2022/05/27 02:58:09;;;;;;;13.80;2.00;;;16.10;99.90;;;;;;4197756;28;20287;-90
2022/05/27 03:00:18;;;;;;;15.65;2.33;;;16.20;99.90;;;;;;4181397;28;20175;-92
2022/05/27 03:02:20;;;;;;;9.18;1.55;;;16.20;99.90;;;;;;4198074;28;20637;-91
2022/05/27 03:04:21;;;;;;;14.20;1.73;;;16.20;99.90;;;;;;4197967;28;20167;-91
2022/05/27 03:06:54;;;;;;;11.40;1.77;;;16.30;99.90;;;;;;4181156;28;20191;-91
2022/05/27 03:09:00;;;;;;;10.68;2.00;;;16.30;99.90;;;;;;4177831;28;20183;-89
2022/05/27 03:11:07;;;;;;;9.00;1.80;;;16.30;99.90;;;;;;4181063;28;20466;-91
2022/05/27 03:13:19;;;;;;;11.82;1.90;;;16.30;99.90;;;;;;4180971;28;20575;-90
2022/05/27 03:16:08;;;;;;;11.77;2.10;;;16.20;99.90;;;;;;4181229;28;20198;-90
2022/05/27 03:18:36;;;;;;;11.63;2.33;;;16.20;99.90;;;;;;4137837;28;20211;-93
2022/05/27 03:20:58;;;;;;;12.07;2.03;;;16.30;99.90;;;;;;4180674;28;20184;-92
2022/05/27 03:23:04;;;;;;;10.75;2.03;;;16.30;99.90;;;;;;4197868;28;20203;-92
2022/05/27 03:25:17;;;;;;;8.70;1.95;;;16.30;99.90;;;;;;4180939;28;20175;-89
2022/05/27 03:27:41;;;;;;;10.55;1.75;;;16.30;99.90;;;;;;4180769;28;20659;-89
2022/05/27 03:30:05;;;;;;;13.98;2.30;;;16.20;99.90;;;;;;4181073;28;20646;-91
2022/05/27 03:32:29;;;;;;;12.82;2.10;;;16.10;99.90;;;;;;4197345;28;20171;-92
2022/05/27 03:35:09;;;;;;;9.10;1.95;;;16.20;99.90;;;;;;4196972;28;20732;-90
2022/05/27 03:37:20;;;;;;;19.58;2.95;;;16.10;99.90;;;;;;4170220;28;20215;-91
2022/05/27 03:39:39;;;;;;;10.90;1.95;;;15.90;99.90;;;;;;4180932;28;20579;-91
2022/05/27 03:41:47;;;;;;;9.10;2.08;;;16.10;99.90;;;;;;4197119;28;20170;-92
2022/05/27 03:43:49;;;;;;;11.38;2.28;;;16.10;99.90;;;;;;4197255;28;20174;-91
2022/05/27 03:45:54;;;;;;;13.55;2.50;;;16.20;99.90;;;;;;4197025;28;20785;-91
2022/05/27 03:47:57;;;;;;;14.35;2.53;;;16.30;99.90;;;;;;4180718;28;20612;-92
2022/05/27 03:49:58;;;;;;;9.77;2.33;;;16.20;99.90;;;;;;4197255;28;20179;-91
2022/05/27 03:52:10;;;;;;;11.55;2.55;;;16.40;99.90;;;;;;4196853;28;20175;-91
2022/05/27 03:54:11;;;;;;;9.80;2.25;;;16.40;99.90;;;;;;4196997;28;20320;-91
2022/05/27 03:56:12;;;;;;;12.15;2.65;;;16.40;99.90;;;;;;4196851;28;20246;-91
2022/05/27 03:58:17;;;;;;;25.15;2.88;;;16.40;99.90;;;;;;4196756;28;20217;-90
2022/05/27 04:00:18;;;;;;;14.38;2.47;;;16.40;99.90;;;;;;4196938;28;20174;-90
2022/05/27 04:02:19;;;;;;;15.68;2.80;;;16.40;99.90;;;;;;4197039;28;20207;-89
2022/05/27 04:04:23;;;;;;;7.70;2.60;;;16.20;99.90;;;;;;4196899;28;20544;-91
2022/05/27 04:06:24;;;;;;;12.50;2.70;;;16.20;99.90;;;;;;4180135;28;20173;-92
2022/05/27 04:08:25;;;;;;;13.52;3.25;;;16.10;99.90;;;;;;4180740;28;20622;-91
2022/05/27 04:10:26;;;;;;;18.45;3.17;;;16.10;99.90;;;;;;4180570;28;20179;-91
2022/05/27 04:12:27;;;;;;;18.10;3.03;;;16.00;99.90;;;;;;4180126;28;20313;-91
2022/05/27 04:14:27;;;;;;;21.95;3.00;;;16.00;99.90;;;;;;4180596;28;20183;-91
2022/05/27 04:16:28;;;;;;;17.92;2.88;;;16.00;99.90;;;;;;4180590;28;20191;-92
2022/05/27 04:18:29;;;;;;;22.77;3.20;;;16.10;99.90;;;;;;4196714;28;20194;-92
2022/05/27 04:20:30;;;;;;;13.88;2.78;;;16.30;99.90;;;;;;4180157;28;20211;-91
2022/05/27 04:22:31;;;;;;;12.63;2.70;;;16.30;99.90;;;;;;4180075;28;20198;-92
2022/05/27 04:24:33;;;;;;;15.00;3.30;;;16.30;99.90;;;;;;4196961;28;20185;-90
2022/05/27 04:26:35;;;;;;;17.15;3.80;;;16.30;99.90;;;;;;4179935;28;20206;-91
2022/05/27 04:28:36;;;;;;;13.98;3.00;;;16.20;99.90;;;;;;4179981;28;20246;-91
2022/05/27 04:30:37;;;;;;;15.50;4.07;;;16.00;99.90;;;;;;4196624;28;20177;-91
2022/05/27 04:32:38;;;;;;;17.05;3.75;;;16.00;99.90;;;;;;4179859;28;20225;-91
2022/05/27 04:34:40;;;;;;;18.83;4.80;;;16.10;99.90;;;;;;4179698;28;20217;-91
2022/05/27 04:36:41;;;;;;;16.80;3.63;;;16.10;99.90;;;;;;4196496;28;20264;-91
2022/05/27 04:38:42;;;;;;;15.68;3.63;;;16.10;99.90;;;;;;4196765;28;20178;-91
2022/05/27 04:40:43;;;;;;;20.02;4.20;;;16.10;99.90;;;;;;4179902;28;20182;-90
2022/05/27 04:42:44;;;;;;;16.58;4.22;;;16.00;99.90;;;;;;4196384;28;20174;-91
2022/05/27 04:44:45;;;;;;;19.05;4.22;;;15.90;99.90;;;;;;4179847;28;20242;-89
2022/05/27 04:46:46;;;;;;;14.45;3.85;;;15.70;99.90;;;;;;4179849;28;20644;-91
2022/05/27 04:48:49;;;;;;;17.30;4.53;;;15.60;99.90;;;;;;4196777;28;20566;-93
2022/05/27 04:50:50;;;;;;;17.42;4.35;;;15.70;99.90;;;;;;4179940;28;20176;-91
2022/05/27 04:52:51;;;;;;;18.77;4.80;;;15.80;99.90;;;;;;4196322;28;20198;-91
2022/05/27 04:54:53;;;;;;;23.05;4.80;;;15.80;99.90;;;;;;4196279;28;20206;-91
2022/05/27 04:56:55;;;;;;;17.90;4.97;;;15.70;99.90;;;;;;4196098;28;20190;-90
2022/05/27 04:58:56;;;;;;;24.63;5.25;;;15.60;99.90;;;;;;4196428;28;20178;-90
2022/05/27 05:00:58;;;;;;;23.77;5.00;;;15.70;99.90;;;;;;4196321;28;20170;-90
2022/05/27 05:02:59;;;;;;;26.80;5.20;;;15.90;99.90;;;;;;4179881;28;20172;-89
2022/05/27 05:05:00;;;;;;;21.58;4.85;;;15.90;99.90;;;;;;4196422;28;20186;-89
2022/05/27 05:07:06;;;;;;;20.88;5.03;;;15.80;99.90;;;;;;4196227;28;20211;-89
2022/05/27 05:09:07;;;;;;;19.90;4.75;;;15.80;99.90;;;;;;4196674;28;20453;-88
2022/05/27 05:11:08;;;;;;;18.02;4.90;;;15.80;99.90;;;;;;4179944;28;20258;-90
2022/05/27 05:13:09;;;;;;;14.43;4.80;;;15.80;99.90;;;;;;4196162;28;20244;-89
2022/05/27 05:15:11;;;;;;;13.05;4.30;;;15.80;99.90;;;;;;4179772;28;20164;-89
2022/05/27 05:17:11;;;;;;;15.75;4.80;;;15.70;99.90;;;;;;4179592;28;20191;-89
2022/05/27 05:19:12;;;;;;;13.68;4.05;;;15.70;99.90;;;;;;4179330;28;20164;-89
2022/05/27 05:21:14;;;;;;;14.50;4.90;;;15.80;99.90;;;;;;4179767;28;20202;-90
2022/05/27 05:23:15;;;;;;;9.25;3.97;;;15.80;99.90;;;;;;4179508;28;20172;-89
2022/05/27 05:25:16;;;;;;;12.75;4.65;;;15.80;99.90;;;;;;4179666;28;20831;-89
2022/05/27 05:27:17;;;;;;;16.30;4.85;;;15.80;99.90;;;;;;4179620;28;20334;-91
2022/05/27 05:29:18;;;;;;;18.05;5.38;;;16.10;99.90;;;;;;4179800;28;20186;-90
2022/05/27 05:31:19;;;;;;;11.00;5.07;;;16.00;99.90;;;;;;4179726;28;20567;-92
2022/05/27 05:33:19;;;;;;;15.40;4.97;;;16.00;99.90;;;;;;4195875;28;20221;-88
2022/05/27 05:35:22;;;;;;;13.65;5.32;;;16.00;99.90;;;;;;4179520;28;20175;-90
2022/05/27 05:37:23;;;;;;;15.18;4.65;;;16.00;99.90;;;;;;4179626;28;20215;-89
2022/05/27 05:39:24;;;;;;;14.98;5.40;;;15.90;99.90;;;;;;4196115;28;20713;-91
2022/05/27 05:41:32;;;;;;;14.30;5.03;;;15.90;99.90;;;;;;4195976;28;20172;-89
2022/05/27 05:43:33;;;;;;;17.00;5.53;;;15.90;99.90;;;;;;4198235;28;20225;-90
2022/05/27 05:45:34;;;;;;;19.35;5.55;;;15.90;99.90;;;;;;4182279;28;20172;-90
2022/05/27 05:47:35;;;;;;;16.77;5.85;;;15.90;99.90;;;;;;4199105;28;20191;-90
2022/05/27 05:49:35;;;;;;;12.13;5.72;;;16.10;99.90;;;;;;4182273;28;20241;-90
2022/05/27 05:51:36;;;;;;;19.00;6.68;;;16.20;99.90;;;;;;4182612;28;20178;-90
2022/05/27 05:53:37;;;;;;;21.17;6.50;;;16.30;99.90;;;;;;4182234;28;20218;-90
2022/05/27 05:55:37;;;;;;;16.45;6.63;;;16.20;99.90;;;;;;4182479;28;20167;-89
2022/05/27 05:57:41;;;;;;;15.15;6.35;;;16.30;99.90;;;;;;4182273;28;20191;-91
2022/05/27 05:59:42;;;;;;;18.95;7.00;;;16.30;99.90;;;;;;4182651;28;20171;-91
2022/05/27 06:01:43;;;;;;;19.38;6.75;;;16.40;99.90;;;;;;4198922;28;20212;-89
2022/05/27 06:03:44;;;;;;;18.48;6.80;;;16.40;99.90;;;;;;4199124;28;20182;-89
2022/05/27 06:05:47;;;;;;;15.82;7.13;;;16.30;99.90;;;;;;4182242;28;20179;-90
2022/05/27 06:07:48;;;;;;;17.17;6.57;;;16.30;99.90;;;;;;4198391;28;20230;-90
2022/05/27 06:09:49;;;;;;;21.48;7.65;;;16.40;99.90;;;;;;4182148;28;20280;-90
2022/05/27 06:11:49;;;;;;;22.35;8.40;;;16.50;99.90;;;;;;4198099;28;20252;-91
2022/05/27 06:13:50;;;;;;;25.52;7.72;;;16.60;99.90;;;;;;4198359;28;20211;-90
2022/05/27 06:15:51;;;;;;;21.00;8.23;;;16.60;99.90;;;;;;4198861;28;20217;-90
2022/05/27 06:17:52;;;;;;;20.60;7.78;;;16.70;99.90;;;;;;4198555;28;20207;-91
2022/05/27 06:19:53;;;;;;;16.20;7.60;;;16.70;99.90;;;;;;4199722;28;20187;-91
2022/05/27 06:21:53;;;;;;;16.55;8.32;;;16.70;99.90;;;;;;4199984;28;20171;-91
2022/05/27 06:23:54;;;;;;;20.55;8.63;;;16.60;99.90;;;;;;4181804;28;20258;-91
2022/05/27 06:26:04;;;;;;;22.27;9.48;;;16.90;99.90;;;;;;4198358;28;20163;-90
2022/05/27 06:35:03;;;;;;;24.35;9.20;;;17.60;99.90;;;;;;4198015;28;20171;-90
2022/05/27 06:37:07;;;;;;;29.17;10.32;;;17.70;99.90;;;;;;4181692;28;20187;-90
2022/05/27 06:39:10;;;;;;;25.52;8.50;;;18.00;99.90;;;;;;4214801;28;20181;-90
2022/05/27 06:41:11;;;;;;;21.27;8.10;;;18.20;99.90;;;;;;4199190;28;20170;-90
2022/05/27 06:43:11;;;;;;;16.70;8.70;;;18.50;99.90;;;;;;4198916;28;20185;-92
2022/05/27 06:45:13;;;;;;;20.30;7.65;;;18.40;99.90;;;;;;4215006;28;20162;-90
2022/05/27 06:47:14;;;;;;;21.50;7.50;;;18.50;99.90;;;;;;4181509;28;20286;-91
2022/05/27 06:49:16;;;;;;;16.38;6.93;;;18.30;99.90;;;;;;4181461;28;20167;-90
2022/05/27 06:51:18;;;;;;;18.30;6.60;;;18.60;99.90;;;;;;4181640;28;20180;-90
2022/05/27 06:53:19;;;;;;;18.70;5.95;;;18.70;99.90;;;;;;4181271;28;20219;-91
2022/05/27 06:55:20;;;;;;;14.23;4.97;;;18.70;99.90;;;;;;4197827;28;20178;-91
2022/05/27 06:57:21;;;;;;;16.95;5.32;;;18.80;99.90;;;;;;4180957;28;20195;-92
2022/05/27 06:59:23;;;;;;;13.50;4.60;;;19.00;99.90;;;;;;4199111;28;20250;-93
2022/05/27 07:01:24;;;;;;;13.63;4.35;;;18.70;99.90;;;;;;4198930;28;20179;-92
2022/05/27 07:03:24;;;;;;;13.77;3.53;;;18.70;99.90;;;;;;4197616;28;20691;-92
2022/05/27 07:05:25;;;;;;;11.30;3.42;;;18.70;99.90;;;;;;4198942;28;20175;-91
2022/05/27 07:07:30;;;;;;;13.40;3.83;;;18.70;99.90;;;;;;4197560;28;20590;-91
2022/05/27 07:09:35;;;;;;;11.65;3.80;;;18.70;99.90;;;;;;4197937;28;20175;-92
2022/05/27 07:11:38;;;;;;;10.35;3.05;;;19.00;99.90;;;;;;4181519;28;20240;-93
2022/05/27 07:13:39;;;;;;;10.80;2.80;;;19.90;99.90;;;;;;4197759;28;20213;-93
2022/05/27 07:15:41;;;;;;;8.80;1.83;;;21.30;99.90;;;;;;4197485;28;20198;-92
2022/05/27 07:17:43;;;;;;;7.53;2.38;;;21.80;99.90;;;;;;4197711;28;20198;-93
2022/05/27 07:19:43;;;;;;;8.20;2.10;;;21.80;99.90;;;;;;4180937;28;20635;-91
2022/05/27 07:21:45;;;;;;;7.97;2.17;;;20.80;99.90;;;;;;4197332;28;20178;-91
2022/05/27 07:23:46;;;;;;;11.30;2.35;;;20.80;99.90;;;;;;4181048;28;20179;-92
2022/05/27 07:25:46;;;;;;;10.88;1.90;;;20.50;99.90;;;;;;4180933;28;20210;-92
2022/05/27 07:27:47;;;;;;;8.82;2.38;;;20.90;99.90;;;;;;4180631;28;20192;-93
2022/05/27 07:29:48;;;;;;;9.07;2.22;;;22.00;99.90;;;;;;4180810;28;20220;-91
2022/05/27 07:31:49;;;;;;;11.50;2.33;;;22.80;99.90;;;;;;4182446;28;20167;-93
2022/05/27 07:33:49;;;;;;;7.50;2.40;;;24.10;99.90;;;;;;4190829;28;20198;-91
2022/05/27 07:35:50;;;;;;;7.53;1.83;;;24.50;99.90;;;;;;4217678;28;20156;-91
2022/05/27 07:37:51;;;;;;;7.82;2.17;;;25.10;99.90;;;;;;4181252;28;20203;-92
2022/05/27 07:39:52;;;;;;;6.22;1.88;;;25.30;99.90;;;;;;4181135;28;20181;-93
2022/05/27 07:41:52;;;;;;;9.15;1.90;;;25.70;99.90;;;;;;4180850;28;20199;-92
2022/05/27 07:43:54;;;;;;;6.95;1.83;;;25.50;99.90;;;;;;4181068;28;20179;-91
2022/05/27 07:45:56;;;;;;;11.82;2.40;;;25.70;99.90;;;;;;4180773;28;20168;-92
2022/05/27 07:47:57;;;;;;;7.78;1.80;;;25.70;99.90;;;;;;4180488;28;20195;-93
2022/05/27 07:49:58;;;;;;;6.85;1.60;;;25.40;99.90;;;;;;4180696;28;20175;-93
2022/05/27 07:51:59;;;;;;;5.07;1.63;;;26.00;99.90;;;;;;4180925;28;20290;-92
2022/05/27 07:54:00;;;;;;;7.72;1.65;;;26.40;99.90;;;;;;4181087;28;20215;-91
2022/05/27 07:56:03;;;;;;;6.05;1.58;;;25.40;99.90;;;;;;4197352;28;20202;-90
2022/05/27 07:58:04;;;;;;;5.25;1.45;;;24.80;99.90;;;;;;4197225;28;20359;-93
2022/05/27 08:00:08;;;;;;;6.35;1.40;;;24.50;99.90;;;;;;4180772;28;20233;-91
2022/05/27 08:02:17;;;;;;;6.78;1.10;;;24.70;99.90;;;;;;4197422;28;20241;-93
2022/05/27 08:04:18;;;;;;;4.85;1.30;;;24.20;99.90;;;;;;4197155;28;20163;-91
2022/05/27 08:06:19;;;;;;;5.88;1.10;;;23.90;99.90;;;;;;4179896;28;20630;-95
2022/05/27 08:08:20;;;;;;;2.10;0.70;;;23.40;99.90;;;;;;4180371;28;20222;-94
2022/05/27 08:10:24;;;;;;;3.50;1.00;;;23.80;99.90;;;;;;4197133;28;20175;-93
2022/05/27 08:12:25;;;;;;;4.15;1.15;;;23.80;99.90;;;;;;4196577;28;20194;-89
2022/05/27 08:14:25;;;;;;;4.80;1.00;;;23.50;99.90;;;;;;4180377;28;20298;-90
2022/05/27 08:16:26;;;;;;;6.13;1.20;;;23.40;99.90;;;;;;4180286;28;20171;-91
2022/05/27 08:18:27;;;;;;;4.95;1.20;;;22.80;99.90;;;;;;4180278;28;20167;-90
2022/05/27 08:20:31;;;;;;;3.38;0.73;;;22.30;99.90;;;;;;4180567;28;20179;-91
2022/05/27 08:22:32;;;;;;;6.38;1.23;;;22.30;99.90;;;;;;4180334;28;20199;-90
2022/05/27 08:24:33;;;;;;;4.88;1.00;;;22.90;99.90;;;;;;4180257;28;20167;-91
2022/05/27 08:26:33;;;;;;;2.53;0.70;;;23.50;99.90;;;;;;4180380;28;20195;-91
2022/05/27 08:28:34;;;;;;;2.80;0.85;;;24.20;99.90;;;;;;4196795;28;20269;-89
2022/05/27 08:30:37;;;;;;;2.17;0.77;;;24.40;99.90;;;;;;4180277;28;20183;-91
2022/05/27 08:32:38;;;;;;;2.47;0.90;;;24.60;99.90;;;;;;4180135;28;20213;-89
2022/05/27 08:39:18;;;;;;;2.75;0.80;;;23.70;99.90;;;;;;4196704;28;20170;-91
2022/05/27 08:41:37;;;;;;;6.68;1.10;;;23.60;99.90;;;;;;4196784;28;20181;-90
2022/05/27 08:44:26;;;;;;;6.00;1.08;;;23.30;99.90;;;;;;4180135;28;20595;-90
2022/05/27 08:46:54;;;;;;;4.10;0.90;;;23.60;99.90;;;;;;4175853;28;20191;-90
2022/05/27 08:48:58;;;;;;;4.60;1.20;;;23.80;99.90;;;;;;4180204;28;20258;-90
2022/05/27 08:51:06;;;;;;;3.72;1.00;;;23.80;99.90;;;;;;4196357;28;20171;-93
2022/05/27 08:53:31;;;;;;;2.33;0.70;;;23.70;99.90;;;;;;4196864;28;20213;-92
2022/05/27 09:00:27;;;;;;;2.58;0.70;;;25.50;99.90;;;;;;4196363;28;20179;-89
2022/05/27 09:02:39;;;;;;;3.05;0.57;;;25.20;99.90;;;;;;4196361;28;20681;-94
2022/05/27 09:05:16;;;;;;;2.45;0.82;;;25.30;99.90;;;;;;4180318;28;20167;-93
2022/05/27 09:07:24;;;;;;;2.75;0.95;;;25.70;99.90;;;;;;4188668;28;20265;-93
2022/05/27 09:09:28;;;;;;;2.25;0.82;;;25.40;99.90;;;;;;4196820;28;20185;-93
2022/05/27 09:12:10;;;;;;;3.55;0.85;;;26.20;99.90;;;;;;4196632;28;20198;-94
2022/05/27 09:14:24;;;;;;;5.00;0.75;;;26.60;99.90;;;;;;4114138;28;20294;-90
2022/05/27 09:16:25;;;;;;;4.25;0.80;;;25.70;99.90;;;;;;4179873;28;20183;-91
2022/05/27 09:18:26;;;;;;;3.88;0.60;;;25.50;99.90;;;;;;4181844;28;20175;-90
2022/05/27 09:20:49;;;;;;;3.28;0.73;;;25.00;99.90;;;;;;4199734;28;20179;-93
2022/05/27 09:23:13;;;;;;;2.72;0.77;;;24.20;99.90;;;;;;4199540;28;20183;-92
2022/05/27 09:25:31;;;;;;;7.35;1.08;;;23.90;99.90;;;;;;4182692;28;20268;-94
2022/05/27 09:27:45;;;;;;;4.97;1.00;;;23.90;99.90;;;;;;4182802;28;20314;-93
2022/05/27 09:29:56;;;;;;;4.40;1.10;;;24.60;99.90;;;;;;4199384;28;20167;-94
2022/05/27 09:32:27;;;;;;;7.47;0.80;;;23.20;99.90;;;;;;4199269;28;20626;-91
2022/05/27 09:34:30;;;;;;;3.45;0.80;;;23.70;99.90;;;;;;4182831;28;20191;-92
2022/05/27 09:36:36;;;;;;;2.38;0.68;;;24.30;99.90;;;;;;4199274;28;20179;-93
2022/05/27 09:38:55;;;;;;;2.15;0.90;;;24.60;99.90;;;;;;4182746;28;20171;-94
2022/05/27 09:40:57;;;;;;;3.33;0.98;;;25.20;99.90;;;;;;4199191;28;20178;-92
2022/05/27 09:43:19;;;;;;;6.25;0.82;;;25.10;99.90;;;;;;4199056;28;20183;-93
2022/05/27 09:45:20;;;;;;;3.20;1.05;;;24.80;99.90;;;;;;4199009;28;20190;-92
2022/05/27 09:47:23;;;;;;;5.47;1.35;;;24.50;99.90;;;;;;4199173;28;20248;-94
2022/05/27 09:49:24;;;;;;;2.95;0.93;;;23.60;99.90;;;;;;4182726;28;20167;-91
2022/05/27 09:51:29;;;;;;;5.95;1.00;;;22.90;99.90;;;;;;4199180;28;20214;-91
2022/05/27 09:53:38;;;;;;;3.67;1.05;;;22.50;99.90;;;;;;4198919;28;20218;-93
2022/05/27 09:55:46;;;;;;;3.92;0.75;;;22.40;99.90;;;;;;4198998;28;20174;-92
2022/05/27 09:58:02;;;;;;;3.30;1.10;;;21.80;99.90;;;;;;4198750;28;20280;-90
2022/05/27 10:00:05;;;;;;;6.57;1.23;;;21.90;99.90;;;;;;4198965;28;20209;-92
2022/05/27 10:02:22;;;;;;;3.30;1.05;;;22.30;99.90;;;;;;4198663;28;20171;-92
2022/05/27 10:04:23;;;;;;;2.25;0.73;;;23.30;99.90;;;;;;4198939;28;20481;-92
2022/05/27 10:06:26;;;;;;;7.70;1.17;;;23.90;99.90;;;;;;4198643;28;20171;-92
2022/05/27 10:08:33;;;;;;;3.22;1.23;;;23.70;99.90;;;;;;4198650;28;20175;-90
2022/05/27 10:10:37;;;;;;;9.40;1.13;;;23.20;99.90;;;;;;4182227;28;20609;-93
2022/05/27 10:12:40;;;;;;;3.00;1.00;;;23.20;99.90;;;;;;4198493;28;20698;-92
2022/05/27 10:14:50;;;;;;;5.10;1.00;;;22.90;99.90;;;;;;4182102;28;20175;-92
2022/05/27 10:17:12;;;;;;;5.38;1.10;;;22.80;99.90;;;;;;4182359;28;20260;-91
2022/05/27 10:19:23;;;;;;;3.88;1.10;;;22.60;99.90;;;;;;4182041;28;20174;-92
2022/05/27 10:21:24;;;;;;;5.95;1.17;;;22.60;99.90;;;;;;4182143;28;20194;-93
2022/05/27 10:23:40;;;;;;;5.90;1.10;;;22.90;99.90;;;;;;4181983;28;20176;-93
2022/05/27 10:25:44;;;;;;;5.50;1.35;;;23.10;99.90;;;;;;4198716;28;20540;-90
2022/05/27 10:27:54;;;;;;;5.20;1.20;;;23.10;99.90;;;;;;4198432;28;20205;-93
2022/05/27 10:29:57;;;;;;;7.05;1.40;;;22.90;99.90;;;;;;4181561;28;20171;-92
2022/05/27 10:31:59;;;;;;;6.25;1.55;;;22.80;99.90;;;;;;4181955;28;20175;-91
2022/05/27 10:34:00;;;;;;;4.95;1.20;;;22.00;99.90;;;;;;4182220;28;20571;-91
2022/05/27 10:36:01;;;;;;;6.30;1.20;;;21.20;99.90;;;;;;4182021;28;20183;-92
2022/05/27 10:38:10;;;;;;;6.30;1.20;;;20.80;99.90;;;;;;4198709;28;20670;-92
2022/05/27 10:40:25;;;;;;;7.05;1.00;;;20.90;99.90;;;;;;4181851;28;20663;-91
2022/05/27 10:42:54;;;;;;;6.43;1.58;;;21.20;99.90;;;;;;4181681;28;20660;-92
2022/05/27 10:45:07;;;;;;;5.97;1.13;;;21.50;99.90;;;;;;4181687;28;20241;-90
2022/05/27 10:47:34;;;;;;;6.15;1.17;;;21.80;99.90;;;;;;4198361;28;20213;-93
2022/05/27 10:50:01;;;;;;;4.90;1.23;;;21.70;99.90;;;;;;4181115;28;20337;-91
2022/05/27 10:52:38;;;;;;;4.55;1.15;;;21.90;99.90;;;;;;4181537;28;20179;-90
2022/05/27 10:54:44;;;;;;;7.18;1.20;;;22.10;99.90;;;;;;4181293;28;20582;-91
2022/05/27 11:02:49;;;;;;;5.10;1.20;;;21.10;99.90;;;;;;4197933;28;20178;-91
2022/05/27 11:05:22;;;;;;;5.22;1.10;;;21.20;99.90;;;;;;4198023;28;20185;-90
2022/05/27 11:07:47;;;;;;;4.35;0.90;;;21.20;99.90;;;;;;4177079;28;20544;-93
2022/05/27 11:10:24;;;;;;;6.85;1.33;;;21.40;99.90;;;;;;4181663;28;20613;-92
2022/05/27 11:15:10;;;;;;;6.07;1.13;;;21.90;99.90;;;;;;4197635;28;20246;-91
2022/05/27 11:15:25;;;;;;;8.32;1.17;;;22.10;99.90;;;;;;4198008;28;20214;-92
2022/05/27 11:18:00;;;;;;;8.40;1.85;;;22.10;99.90;;;;;;4197876;28;20195;-92
2022/05/27 11:20:25;;;;;;;7.90;1.45;;;22.30;99.90;;;;;;4150354;28;20191;-94
2022/05/27 11:22:37;;;;;;;7.35;1.45;;;22.00;99.90;;;;;;4181548;28;20310;-94
2022/05/27 11:25:02;;;;;;;6.97;1.30;;;21.90;99.90;;;;;;4181279;28;20325;-93
2022/05/27 11:27:27;;;;;;;7.78;1.00;;;21.90;99.90;;;;;;4181061;28;20203;-90
2022/05/27 11:29:31;;;;;;;6.65;1.30;;;22.00;99.90;;;;;;4197851;28;20183;-91